KPAH/PAH METAR and TAF weather

Enter ICAO airport designator
Station Type Date Time Source
KPAH METAR 2019/08/22 20:14 UTC NOAA

KPAH 222014Z 13009KT 6SM -RA BR SCT110 22/20 A2997 RMK AO2 LTG DSNT NE AND E AND SW P0003 T02170200


Station Type Date Time Source
KPAH Decoded METAR 2019/08/22 20:14 UTC NOAA

Station name not available
Aug 22, 2019 - 04:14 PM EDT / 2019.08.22 2014 UTC
Wind: from the SE (130 degrees) at 10 MPH (9 KT):0
Visibility: 6 mile(s):0
Sky conditions: partly cloudy
Weather: light rain; mist; Lightning observed
Precipitation last hour: 0.03 inches
Temperature: 71.1 F (21.7 C)
Dew Point: 68.0 F (20.0 C)
Relative Humidity: 90%
Pressure (altimeter): 29.97 in. Hg (1014 hPa)
ob: KPAH 222014Z 13009KT 6SM -RA BR SCT110 22/20 A2997 RMK AO2 LTG DSNT NE AND E AND SW P0003 T02170200
cycle: 20

Station Type Date Time Source
KPAH TAF 2019/08/22 18:22 UTC NOAA

TAF KPAH 221720Z 2218/2318 05007KT 6SM -SHRA BR VCTS BKN035 BKN120CB
TEMPO 2218/2222 VRB15G28KT 2SM TSRA BR BKN012 OVC045CB
FM230400 00000KT 6SM -SHRA BR OVC030
FM230900 00000KT 4SM SHRA BR OVC011
FM231100 VRB03KT 3SM SHRA BR BKN007
FM231400 VRB04KT 6SM -SHRA BR BKN014

Example: see airport list